sensor_id;sensor_type;location;lat;lon;timestamp;temperature;humidity
45491;DHT22;31237;45.586;13.782;2023-04-03T00:00:10;11.30;76.20
45491;DHT22;31237;45.586;13.782;2023-04-03T00:02:36;11.30;76.20
45491;DHT22;31237;45.586;13.782;2023-04-03T00:05:01;11.20;76.30
45491;DHT22;31237;45.586;13.782;2023-04-03T00:07:27;11.20;76.50
45491;DHT22;31237;45.586;13.782;2023-04-03T00:09:53;11.10;76.50
45491;DHT22;31237;45.586;13.782;2023-04-03T00:12:18;11.10;76.60
45491;DHT22;31237;45.586;13.782;2023-04-03T00:14:44;11.00;76.40
45491;DHT22;31237;45.586;13.782;2023-04-03T00:17:10;11.00;76.50
45491;DHT22;31237;45.586;13.782;2023-04-03T00:19:37;11.00;76.30
45491;DHT22;31237;45.586;13.782;2023-04-03T00:22:02;10.90;76.10
45491;DHT22;31237;45.586;13.782;2023-04-03T00:24:28;10.90;76.20
45491;DHT22;31237;45.586;13.782;2023-04-03T00:26:54;10.90;76.20
45491;DHT22;31237;45.586;13.782;2023-04-03T00:29:19;10.80;76.30
45491;DHT22;31237;45.586;13.782;2023-04-03T00:31:45;10.70;76.30
45491;DHT22;31237;45.586;13.782;2023-04-03T00:34:11;10.70;76.40
45491;DHT22;31237;45.586;13.782;2023-04-03T00:36:36;10.60;76.40
45491;DHT22;31237;45.586;13.782;2023-04-03T00:39:02;10.60;76.20
45491;DHT22;31237;45.586;13.782;2023-04-03T00:41:28;10.60;76.30
45491;DHT22;31237;45.586;13.782;2023-04-03T00:43:54;10.50;76.30
45491;DHT22;31237;45.586;13.782;2023-04-03T00:46:20;10.50;76.50
45491;DHT22;31237;45.586;13.782;2023-04-03T00:48:47;10.40;76.50
45491;DHT22;31237;45.586;13.782;2023-04-03T00:51:16;10.40;76.60
45491;DHT22;31237;45.586;13.782;2023-04-03T00:53:47;10.30;76.70
45491;DHT22;31237;45.586;13.782;2023-04-03T00:56:15;10.20;76.60
45491;DHT22;31237;45.586;13.782;2023-04-03T00:58:59;10.20;76.80
45491;DHT22;31237;45.586;13.782;2023-04-03T01:01:28;10.20;76.90
45491;DHT22;31237;45.586;13.782;2023-04-03T01:03:54;10.10;77.00
45491;DHT22;31237;45.586;13.782;2023-04-03T01:06:27;10.10;77.10
45491;DHT22;31237;45.586;13.782;2023-04-03T01:08:54;10.10;77.20
45491;DHT22;31237;45.586;13.782;2023-04-03T01:11:20;10.00;77.20
45491;DHT22;31237;45.586;13.782;2023-04-03T01:13:46;10.00;77.30
45491;DHT22;31237;45.586;13.782;2023-04-03T01:16:12;10.00;77.20
45491;DHT22;31237;45.586;13.782;2023-04-03T01:18:39;9.90;77.00
45491;DHT22;31237;45.586;13.782;2023-04-03T01:26:32;9.90;77.30
45491;DHT22;31237;45.586;13.782;2023-04-03T01:28:59;9.80;77.50
45491;DHT22;31237;45.586;13.782;2023-04-03T01:31:30;9.80;77.60
45491;DHT22;31237;45.586;13.782;2023-04-03T01:33:57;9.80;77.70
45491;DHT22;31237;45.586;13.782;2023-04-03T01:36:27;9.80;77.90
45491;DHT22;31237;45.586;13.782;2023-04-03T01:38:54;9.80;78.00
45491;DHT22;31237;45.586;13.782;2023-04-03T01:41:20;9.70;77.90
45491;DHT22;31237;45.586;13.782;2023-04-03T01:43:47;9.70;77.90
45491;DHT22;31237;45.586;13.782;2023-04-03T01:46:13;9.70;77.90
45491;DHT22;31237;45.586;13.782;2023-04-03T01:48:40;9.60;77.80
45491;DHT22;31237;45.586;13.782;2023-04-03T01:51:05;9.70;77.50
45491;DHT22;31237;45.586;13.782;2023-04-03T01:53:31;9.60;77.50
45491;DHT22;31237;45.586;13.782;2023-04-03T01:55:57;9.60;77.40
45491;DHT22;31237;45.586;13.782;2023-04-03T01:58:23;9.60;77.20
45491;DHT22;31237;45.586;13.782;2023-04-03T02:00:48;9.60;77.10
45491;DHT22;31237;45.586;13.782;2023-04-03T02:03:14;9.50;77.00
45491;DHT22;31237;45.586;13.782;2023-04-03T02:05:40;9.50;77.10
45491;DHT22;31237;45.586;13.782;2023-04-03T02:08:06;9.40;77.00
45491;DHT22;31237;45.586;13.782;2023-04-03T02:10:32;9.40;77.00
45491;DHT22;31237;45.586;13.782;2023-04-03T02:12:58;9.40;76.50
45491;DHT22;31237;45.586;13.782;2023-04-03T02:15:23;9.40;75.70
45491;DHT22;31237;45.586;13.782;2023-04-03T02:17:49;9.40;75.60
45491;DHT22;31237;45.586;13.782;2023-04-03T02:20:15;9.30;75.60
45491;DHT22;31237;45.586;13.782;2023-04-03T02:22:40;9.40;75.40
45491;DHT22;31237;45.586;13.782;2023-04-03T02:25:06;9.30;75.20
45491;DHT22;31237;45.586;13.782;2023-04-03T02:27:32;9.30;74.90
45491;DHT22;31237;45.586;13.782;2023-04-03T02:29:58;9.20;74.90
45491;DHT22;31237;45.586;13.782;2023-04-03T02:32:23;9.20;74.80
45491;DHT22;31237;45.586;13.782;2023-04-03T02:34:49;9.10;74.70
45491;DHT22;31237;45.586;13.782;2023-04-03T02:37:15;9.10;74.60
45491;DHT22;31237;45.586;13.782;2023-04-03T02:39:41;9.10;74.30
45491;DHT22;31237;45.586;13.782;2023-04-03T02:42:06;9.00;74.20
45491;DHT22;31237;45.586;13.782;2023-04-03T02:44:32;9.00;74.10
45491;DHT22;31237;45.586;13.782;2023-04-03T02:46:58;9.00;73.90
45491;DHT22;31237;45.586;13.782;2023-04-03T02:49:24;8.90;73.80
45491;DHT22;31237;45.586;13.782;2023-04-03T02:51:50;8.90;73.80
45491;DHT22;31237;45.586;13.782;2023-04-03T02:54:16;8.80;73.70
45491;DHT22;31237;45.586;13.782;2023-04-03T02:56:42;8.80;73.40
45491;DHT22;31237;45.586;13.782;2023-04-03T02:59:08;8.80;73.30
45491;DHT22;31237;45.586;13.782;2023-04-03T03:01:34;8.80;73.10
45491;DHT22;31237;45.586;13.782;2023-04-03T03:04:00;8.70;73.00
45491;DHT22;31237;45.586;13.782;2023-04-03T03:06:26;8.70;73.10
45491;DHT22;31237;45.586;13.782;2023-04-03T03:08:52;8.70;73.20
45491;DHT22;31237;45.586;13.782;2023-04-03T03:11:18;8.60;73.10
45491;DHT22;31237;45.586;13.782;2023-04-03T03:13:43;8.60;73.10
45491;DHT22;31237;45.586;13.782;2023-04-03T03:16:09;8.60;72.90
45491;DHT22;31237;45.586;13.782;2023-04-03T03:18:35;8.50;72.90
45491;DHT22;31237;45.586;13.782;2023-04-03T03:21:02;8.50;72.80
45491;DHT22;31237;45.586;13.782;2023-04-03T03:23:30;8.40;72.60
45491;DHT22;31237;45.586;13.782;2023-04-03T03:26:00;8.40;72.40
45491;DHT22;31237;45.586;13.782;2023-04-03T03:28:26;8.40;72.40
45491;DHT22;31237;45.586;13.782;2023-04-03T03:30:52;8.40;72.40
45491;DHT22;31237;45.586;13.782;2023-04-03T03:33:18;8.30;72.00
45491;DHT22;31237;45.586;13.782;2023-04-03T03:35:44;8.30;72.20
45491;DHT22;31237;45.586;13.782;2023-04-03T03:38:10;8.30;71.70
45491;DHT22;31237;45.586;13.782;2023-04-03T03:40:36;8.30;71.90
45491;DHT22;31237;45.586;13.782;2023-04-03T03:43:02;8.20;71.90
45491;DHT22;31237;45.586;13.782;2023-04-03T03:45:28;8.20;71.90
45491;DHT22;31237;45.586;13.782;2023-04-03T03:47:53;8.10;71.60
45491;DHT22;31237;45.586;13.782;2023-04-03T03:50:19;8.10;71.60
45491;DHT22;31237;45.586;13.782;2023-04-03T03:52:46;8.10;71.50
45491;DHT22;31237;45.586;13.782;2023-04-03T03:55:12;8.00;71.50
45491;DHT22;31237;45.586;13.782;2023-04-03T03:57:38;8.00;71.00
45491;DHT22;31237;45.586;13.782;2023-04-03T04:00:04;8.00;70.80
45491;DHT22;31237;45.586;13.782;2023-04-03T04:02:30;7.90;70.70
45491;DHT22;31237;45.586;13.782;2023-04-03T04:04:56;7.90;70.70
45491;DHT22;31237;45.586;13.782;2023-04-03T04:07:22;7.90;70.70
45491;DHT22;31237;45.586;13.782;2023-04-03T04:09:48;7.90;70.60
45491;DHT22;31237;45.586;13.782;2023-04-03T04:12:13;7.80;70.50
45491;DHT22;31237;45.586;13.782;2023-04-03T04:14:39;7.70;70.40
45491;DHT22;31237;45.586;13.782;2023-04-03T04:17:05;7.70;70.10
45491;DHT22;31237;45.586;13.782;2023-04-03T04:19:31;7.70;70.40
45491;DHT22;31237;45.586;13.782;2023-04-03T04:21:56;7.60;70.80
45491;DHT22;31237;45.586;13.782;2023-04-03T04:24:22;7.60;70.20
45491;DHT22;31237;45.586;13.782;2023-04-03T04:26:48;7.60;70.00
45491;DHT22;31237;45.586;13.782;2023-04-03T04:29:14;7.50;70.00
45491;DHT22;31237;45.586;13.782;2023-04-03T04:31:40;7.50;70.10
45491;DHT22;31237;45.586;13.782;2023-04-03T04:34:05;7.40;69.90
45491;DHT22;31237;45.586;13.782;2023-04-03T04:36:31;7.40;69.30
45491;DHT22;31237;45.586;13.782;2023-04-03T04:38:57;7.40;69.50
45491;DHT22;31237;45.586;13.782;2023-04-03T04:41:23;7.40;69.50
45491;DHT22;31237;45.586;13.782;2023-04-03T04:43:50;7.30;69.60
45491;DHT22;31237;45.586;13.782;2023-04-03T04:46:16;7.30;69.20
45491;DHT22;31237;45.586;13.782;2023-04-03T04:48:41;7.30;69.30
45491;DHT22;31237;45.586;13.782;2023-04-03T04:51:07;7.30;69.30
45491;DHT22;31237;45.586;13.782;2023-04-03T04:53:33;7.30;69.20
45491;DHT22;31237;45.586;13.782;2023-04-03T04:55:59;7.20;68.60
45491;DHT22;31237;45.586;13.782;2023-04-03T04:58:25;7.20;68.40
45491;DHT22;31237;45.586;13.782;2023-04-03T05:03:27;7.20;68.70
45491;DHT22;31237;45.586;13.782;2023-04-03T05:05:55;7.20;68.70
45491;DHT22;31237;45.586;13.782;2023-04-03T05:08:24;7.20;68.40
45491;DHT22;31237;45.586;13.782;2023-04-03T05:10:50;7.20;68.50
45491;DHT22;31237;45.586;13.782;2023-04-03T05:13:16;7.10;68.40
45491;DHT22;31237;45.586;13.782;2023-04-03T05:15:42;7.10;68.50
45491;DHT22;31237;45.586;13.782;2023-04-03T05:18:08;7.10;68.30
45491;DHT22;31237;45.586;13.782;2023-04-03T05:20:34;7.10;68.40
45491;DHT22;31237;45.586;13.782;2023-04-03T05:23:00;7.10;68.50
45491;DHT22;31237;45.586;13.782;2023-04-03T05:25:26;7.10;68.30
45491;DHT22;31237;45.586;13.782;2023-04-03T05:27:52;7.10;67.90
45491;DHT22;31237;45.586;13.782;2023-04-03T05:30:18;7.10;67.60
45491;DHT22;31237;45.586;13.782;2023-04-03T05:32:44;7.20;67.40
45491;DHT22;31237;45.586;13.782;2023-04-03T05:35:11;7.20;67.40
45491;DHT22;31237;45.586;13.782;2023-04-03T05:37:37;7.20;67.40
45491;DHT22;31237;45.586;13.782;2023-04-03T05:40:04;7.20;67.50
45491;DHT22;31237;45.586;13.782;2023-04-03T05:42:30;7.20;67.40
45491;DHT22;31237;45.586;13.782;2023-04-03T05:44:56;7.20;67.20
45491;DHT22;31237;45.586;13.782;2023-04-03T05:47:21;7.30;66.20
45491;DHT22;31237;45.586;13.782;2023-04-03T05:49:47;7.30;66.30
45491;DHT22;31237;45.586;13.782;2023-04-03T05:52:27;7.40;65.70
45491;DHT22;31237;45.586;13.782;2023-04-03T05:54:54;7.40;66.10
45491;DHT22;31237;45.586;13.782;2023-04-03T05:57:20;7.40;65.30
45491;DHT22;31237;45.586;13.782;2023-04-03T05:59:46;7.40;65.50
45491;DHT22;31237;45.586;13.782;2023-04-03T06:02:15;7.50;65.60
45491;DHT22;31237;45.586;13.782;2023-04-03T06:04:41;7.50;64.90
45491;DHT22;31237;45.586;13.782;2023-04-03T06:07:06;7.50;65.00
45491;DHT22;31237;45.586;13.782;2023-04-03T06:09:33;7.60;64.80
45491;DHT22;31237;45.586;13.782;2023-04-03T06:11:59;7.60;64.70
45491;DHT22;31237;45.586;13.782;2023-04-03T06:14:25;7.70;64.50
45491;DHT22;31237;45.586;13.782;2023-04-03T06:16:52;7.70;63.30
45491;DHT22;31237;45.586;13.782;2023-04-03T06:19:19;7.70;63.50
45491;DHT22;31237;45.586;13.782;2023-04-03T06:21:45;7.80;63.10
45491;DHT22;31237;45.586;13.782;2023-04-03T06:24:14;7.80;62.40
45491;DHT22;31237;45.586;13.782;2023-04-03T06:26:40;7.90;61.60
45491;DHT22;31237;45.586;13.782;2023-04-03T06:29:06;7.90;62.00
45491;DHT22;31237;45.586;13.782;2023-04-03T06:31:32;8.00;61.20
45491;DHT22;31237;45.586;13.782;2023-04-03T06:33:58;8.00;61.40
45491;DHT22;31237;45.586;13.782;2023-04-03T06:36:24;8.00;61.10
45491;DHT22;31237;45.586;13.782;2023-04-03T06:38:50;8.00;60.80
45491;DHT22;31237;45.586;13.782;2023-04-03T06:41:17;8.10;61.20
45491;DHT22;31237;45.586;13.782;2023-04-03T06:43:43;8.10;60.80
45491;DHT22;31237;45.586;13.782;2023-04-03T06:46:15;8.10;60.30
45491;DHT22;31237;45.586;13.782;2023-04-03T06:48:41;8.20;60.40
45491;DHT22;31237;45.586;13.782;2023-04-03T06:51:17;8.20;60.50
45491;DHT22;31237;45.586;13.782;2023-04-03T06:53:44;8.20;60.80
45491;DHT22;31237;45.586;13.782;2023-04-03T06:56:11;8.30;59.80
45491;DHT22;31237;45.586;13.782;2023-04-03T06:58:36;8.30;58.70
45491;DHT22;31237;45.586;13.782;2023-04-03T07:01:02;8.30;58.90
45491;DHT22;31237;45.586;13.782;2023-04-03T07:03:28;8.40;58.60
45491;DHT22;31237;45.586;13.782;2023-04-03T07:05:54;8.30;58.60
45491;DHT22;31237;45.586;13.782;2023-04-03T07:08:24;8.40;58.40
45491;DHT22;31237;45.586;13.782;2023-04-03T07:10:51;8.40;58.50
45491;DHT22;31237;45.586;13.782;2023-04-03T07:13:17;8.50;58.50
45491;DHT22;31237;45.586;13.782;2023-04-03T07:15:43;8.50;58.20
45491;DHT22;31237;45.586;13.782;2023-04-03T07:18:08;8.60;57.60
45491;DHT22;31237;45.586;13.782;2023-04-03T07:20:34;8.60;58.20
45491;DHT22;31237;45.586;13.782;2023-04-03T07:23:00;8.70;58.50
45491;DHT22;31237;45.586;13.782;2023-04-03T07:25:27;8.80;57.90
45491;DHT22;31237;45.586;13.782;2023-04-03T07:27:53;8.80;57.80
45491;DHT22;31237;45.586;13.782;2023-04-03T07:30:20;8.90;57.40
45491;DHT22;31237;45.586;13.782;2023-04-03T07:32:46;9.00;57.50
45491;DHT22;31237;45.586;13.782;2023-04-03T07:35:12;9.10;57.00
45491;DHT22;31237;45.586;13.782;2023-04-03T07:37:38;9.10;56.20
45491;DHT22;31237;45.586;13.782;2023-04-03T07:40:04;9.10;56.20
45491;DHT22;31237;45.586;13.782;2023-04-03T07:42:30;9.20;56.50
45491;DHT22;31237;45.586;13.782;2023-04-03T07:44:57;9.30;55.90
45491;DHT22;31237;45.586;13.782;2023-04-03T07:47:22;9.30;55.80
45491;DHT22;31237;45.586;13.782;2023-04-03T07:49:48;9.30;56.00
45491;DHT22;31237;45.586;13.782;2023-04-03T07:52:14;9.40;55.70
45491;DHT22;31237;45.586;13.782;2023-04-03T07:54:43;9.50;55.20
45491;DHT22;31237;45.586;13.782;2023-04-03T07:57:08;9.60;55.10
45491;DHT22;31237;45.586;13.782;2023-04-03T07:59:34;9.60;54.00
45491;DHT22;31237;45.586;13.782;2023-04-03T08:02:00;9.60;54.70
45491;DHT22;31237;45.586;13.782;2023-04-03T08:04:26;9.70;55.20
45491;DHT22;31237;45.586;13.782;2023-04-03T08:06:52;9.80;54.80
45491;DHT22;31237;45.586;13.782;2023-04-03T08:09:18;9.90;54.60
45491;DHT22;31237;45.586;13.782;2023-04-03T08:11:45;10.00;54.00
45491;DHT22;31237;45.586;13.782;2023-04-03T08:14:11;10.00;52.70
45491;DHT22;31237;45.586;13.782;2023-04-03T08:16:45;10.10;53.90
45491;DHT22;31237;45.586;13.782;2023-04-03T08:19:11;10.20;53.10
45491;DHT22;31237;45.586;13.782;2023-04-03T08:21:39;10.20;53.50
45491;DHT22;31237;45.586;13.782;2023-04-03T08:24:06;10.30;53.20
45491;DHT22;31237;45.586;13.782;2023-04-03T08:26:32;10.40;52.90
45491;DHT22;31237;45.586;13.782;2023-04-03T08:28:58;10.40;52.30
45491;DHT22;31237;45.586;13.782;2023-04-03T08:31:24;10.40;52.60
45491;DHT22;31237;45.586;13.782;2023-04-03T08:33:50;10.50;53.00
45491;DHT22;31237;45.586;13.782;2023-04-03T08:36:24;10.60;51.90
45491;DHT22;31237;45.586;13.782;2023-04-03T08:38:51;10.60;52.00
45491;DHT22;31237;45.586;13.782;2023-04-03T08:41:36;10.70;52.50
45491;DHT22;31237;45.586;13.782;2023-04-03T08:50:19;10.90;50.80
45491;DHT22;31237;45.586;13.782;2023-04-03T08:53:32;11.00;50.70
45491;DHT22;31237;45.586;13.782;2023-04-03T08:55:58;11.00;50.50
45491;DHT22;31237;45.586;13.782;2023-04-03T08:58:30;11.10;51.50
45491;DHT22;31237;45.586;13.782;2023-04-03T09:01:06;11.20;51.20
45491;DHT22;31237;45.586;13.782;2023-04-03T09:03:37;11.30;51.20
45491;DHT22;31237;45.586;13.782;2023-04-03T09:08:35;11.50;50.40
45491;DHT22;31237;45.586;13.782;2023-04-03T09:11:23;11.60;50.50
45491;DHT22;31237;45.586;13.782;2023-04-03T09:18:58;11.70;49.10
45491;DHT22;31237;45.586;13.782;2023-04-03T09:21:39;11.70;49.90
45491;DHT22;31237;45.586;13.782;2023-04-03T09:24:11;11.80;49.10
45491;DHT22;31237;45.586;13.782;2023-04-03T09:26:45;11.90;50.00
45491;DHT22;31237;45.586;13.782;2023-04-03T09:29:17;12.00;49.30
45491;DHT22;31237;45.586;13.782;2023-04-03T09:31:45;12.00;48.80
45491;DHT22;31237;45.586;13.782;2023-04-03T09:34:36;12.00;47.40
45491;DHT22;31237;45.586;13.782;2023-04-03T09:37:03;11.90;47.80
45491;DHT22;31237;45.586;13.782;2023-04-03T09:39:32;11.90;47.60
45491;DHT22;31237;45.586;13.782;2023-04-03T09:42:21;11.90;48.10
45491;DHT22;31237;45.586;13.782;2023-04-03T09:45:02;12.00;48.30
45491;DHT22;31237;45.586;13.782;2023-04-03T09:47:33;12.10;48.70
45491;DHT22;31237;45.586;13.782;2023-04-03T09:52:41;12.40;47.80
45491;DHT22;31237;45.586;13.782;2023-04-03T09:55:20;12.40;47.90
45491;DHT22;31237;45.586;13.782;2023-04-03T09:57:53;12.50;47.70
45491;DHT22;31237;45.586;13.782;2023-04-03T10:00:22;12.60;45.90
45491;DHT22;31237;45.586;13.782;2023-04-03T10:02:52;12.50;47.10
45491;DHT22;31237;45.586;13.782;2023-04-03T10:05:40;12.50;47.30
45491;DHT22;31237;45.586;13.782;2023-04-03T10:10:46;12.60;47.00
45491;DHT22;31237;45.586;13.782;2023-04-03T10:13:19;12.60;46.70
45491;DHT22;31237;45.586;13.782;2023-04-03T10:24:08;12.40;45.90
45491;DHT22;31237;45.586;13.782;2023-04-03T10:26:58;12.40;47.00
45491;DHT22;31237;45.586;13.782;2023-04-03T10:29:42;12.40;47.40
45491;DHT22;31237;45.586;13.782;2023-04-03T10:35:42;12.50;46.90
45491;DHT22;31237;45.586;13.782;2023-04-03T10:46:28;12.40;47.00
45491;DHT22;31237;45.586;13.782;2023-04-03T10:49:01;12.50;46.80
45491;DHT22;31237;45.586;13.782;2023-04-03T10:51:48;12.50;45.60
45491;DHT22;31237;45.586;13.782;2023-04-03T10:54:24;12.50;46.00
45491;DHT22;31237;45.586;13.782;2023-04-03T10:57:01;12.50;46.10
45491;DHT22;31237;45.586;13.782;2023-04-03T10:59:35;12.50;45.40
45491;DHT22;31237;45.586;13.782;2023-04-03T11:05:04;12.40;44.40
45491;DHT22;31237;45.586;13.782;2023-04-03T11:07:38;12.30;45.50
45491;DHT22;31237;45.586;13.782;2023-04-03T11:10:24;12.30;44.10
45491;DHT22;31237;45.586;13.782;2023-04-03T11:13:12;12.20;45.30
45491;DHT22;31237;45.586;13.782;2023-04-03T11:15:38;12.20;44.90
45491;DHT22;31237;45.586;13.782;2023-04-03T11:20:46;12.30;45.50
45491;DHT22;31237;45.586;13.782;2023-04-03T11:23:22;12.30;45.70
45491;DHT22;31237;45.586;13.782;2023-04-03T11:25:53;12.30;45.70
45491;DHT22;31237;45.586;13.782;2023-04-03T11:28:19;12.40;45.80
45491;DHT22;31237;45.586;13.782;2023-04-03T11:30:50;12.50;46.30
45491;DHT22;31237;45.586;13.782;2023-04-03T11:36:38;12.50;46.10
45491;DHT22;31237;45.586;13.782;2023-04-03T11:39:31;12.60;46.30
45491;DHT22;31237;45.586;13.782;2023-04-03T11:42:16;12.60;44.70
45491;DHT22;31237;45.586;13.782;2023-04-03T11:44:43;12.60;44.60
45491;DHT22;31237;45.586;13.782;2023-04-03T11:47:09;12.60;44.50
45491;DHT22;31237;45.586;13.782;2023-04-03T11:49:56;12.60;43.90
45491;DHT22;31237;45.586;13.782;2023-04-03T11:52:54;12.50;44.40
45491;DHT22;31237;45.586;13.782;2023-04-03T12:03:33;12.40;44.80
45491;DHT22;31237;45.586;13.782;2023-04-03T12:14:20;12.60;43.60
45491;DHT22;31237;45.586;13.782;2023-04-03T12:24:28;12.90;44.10
45491;DHT22;31237;45.586;13.782;2023-04-03T12:34:32;12.90;43.90
45491;DHT22;31237;45.586;13.782;2023-04-03T12:37:12;12.90;43.50
45491;DHT22;31237;45.586;13.782;2023-04-03T12:39:44;12.90;43.60
45491;DHT22;31237;45.586;13.782;2023-04-03T12:42:32;12.90;42.90
45491;DHT22;31237;45.586;13.782;2023-04-03T12:47:43;12.90;42.90
45491;DHT22;31237;45.586;13.782;2023-04-03T12:50:28;12.80;43.70
45491;DHT22;31237;45.586;13.782;2023-04-03T12:53:04;12.90;43.40
45491;DHT22;31237;45.586;13.782;2023-04-03T12:55:30;12.80;42.70
45491;DHT22;31237;45.586;13.782;2023-04-03T12:57:56;12.80;43.20
45491;DHT22;31237;45.586;13.782;2023-04-03T13:00:29;12.80;43.30
45491;DHT22;31237;45.586;13.782;2023-04-03T13:02:56;12.80;43.10
45491;DHT22;31237;45.586;13.782;2023-04-03T13:05:22;12.70;42.70
45491;DHT22;31237;45.586;13.782;2023-04-03T13:07:49;12.60;43.20
45491;DHT22;31237;45.586;13.782;2023-04-03T13:10:19;12.50;42.70
45491;DHT22;31237;45.586;13.782;2023-04-03T13:15:20;12.40;43.00
45491;DHT22;31237;45.586;13.782;2023-04-03T13:17:48;12.40;43.50
45491;DHT22;31237;45.586;13.782;2023-04-03T13:20:28;12.40;43.00
45491;DHT22;31237;45.586;13.782;2023-04-03T13:23:03;12.40;42.90
45491;DHT22;31237;45.586;13.782;2023-04-03T13:25:33;12.40;42.40
45491;DHT22;31237;45.586;13.782;2023-04-03T13:28:01;12.30;42.40
45491;DHT22;31237;45.586;13.782;2023-04-03T13:30:32;12.20;42.50
45491;DHT22;31237;45.586;13.782;2023-04-03T13:33:01;12.20;42.40
45491;DHT22;31237;45.586;13.782;2023-04-03T13:35:40;12.20;43.50
45491;DHT22;31237;45.586;13.782;2023-04-03T13:40:56;12.10;43.50
45491;DHT22;31237;45.586;13.782;2023-04-03T13:43:25;12.10;43.50
45491;DHT22;31237;45.586;13.782;2023-04-03T13:48:41;12.10;43.40
45491;DHT22;31237;45.586;13.782;2023-04-03T13:51:18;12.10;43.50
45491;DHT22;31237;45.586;13.782;2023-04-03T13:54:22;12.00;44.00
45491;DHT22;31237;45.586;13.782;2023-04-03T13:56:58;11.90;44.00
45491;DHT22;31237;45.586;13.782;2023-04-03T13:59:32;11.90;43.80
45491;DHT22;31237;45.586;13.782;2023-04-03T14:04:51;11.80;44.00
45491;DHT22;31237;45.586;13.782;2023-04-03T14:07:18;11.80;44.10
45491;DHT22;31237;45.586;13.782;2023-04-03T14:09:45;11.70;44.30
45491;DHT22;31237;45.586;13.782;2023-04-03T14:12:18;11.80;44.70
45491;DHT22;31237;45.586;13.782;2023-04-03T14:14:46;11.80;44.50
45491;DHT22;31237;45.586;13.782;2023-04-03T14:17:18;11.80;42.90
45491;DHT22;31237;45.586;13.782;2023-04-03T14:19:45;11.80;43.60
45491;DHT22;31237;45.586;13.782;2023-04-03T14:22:16;11.70;44.10
45491;DHT22;31237;45.586;13.782;2023-04-03T14:24:42;11.80;43.80
45491;DHT22;31237;45.586;13.782;2023-04-03T14:27:22;11.80;43.70
45491;DHT22;31237;45.586;13.782;2023-04-03T14:29:51;11.80;43.90
45491;DHT22;31237;45.586;13.782;2023-04-03T14:32:19;11.70;44.20
45491;DHT22;31237;45.586;13.782;2023-04-03T14:34:46;11.70;44.20
45491;DHT22;31237;45.586;13.782;2023-04-03T14:37:18;11.70;43.70
45491;DHT22;31237;45.586;13.782;2023-04-03T14:39:46;11.60;44.20
45491;DHT22;31237;45.586;13.782;2023-04-03T14:42:24;11.60;44.20
45491;DHT22;31237;45.586;13.782;2023-04-03T14:44:51;11.60;44.60
45491;DHT22;31237;45.586;13.782;2023-04-03T14:47:20;11.50;44.90
45491;DHT22;31237;45.586;13.782;2023-04-03T14:49:47;11.40;45.00
45491;DHT22;31237;45.586;13.782;2023-04-03T14:52:29;11.40;44.70
45491;DHT22;31237;45.586;13.782;2023-04-03T14:54:55;11.40;44.50
45491;DHT22;31237;45.586;13.782;2023-04-03T14:57:24;11.30;44.60
45491;DHT22;31237;45.586;13.782;2023-04-03T14:59:51;11.30;44.80
45491;DHT22;31237;45.586;13.782;2023-04-03T15:02:32;11.30;44.90
45491;DHT22;31237;45.586;13.782;2023-04-03T15:05:00;11.30;43.70
45491;DHT22;31237;45.586;13.782;2023-04-03T15:07:29;11.30;44.20
45491;DHT22;31237;45.586;13.782;2023-04-03T15:09:55;11.30;44.00
45491;DHT22;31237;45.586;13.782;2023-04-03T15:12:25;11.20;44.40
45491;DHT22;31237;45.586;13.782;2023-04-03T15:14:50;11.20;44.60
45491;DHT22;31237;45.586;13.782;2023-04-03T15:17:21;11.20;44.50
45491;DHT22;31237;45.586;13.782;2023-04-03T15:19:48;11.20;44.10
45491;DHT22;31237;45.586;13.782;2023-04-03T15:22:18;11.20;44.20
45491;DHT22;31237;45.586;13.782;2023-04-03T15:24:45;11.10;43.90
45491;DHT22;31237;45.586;13.782;2023-04-03T15:27:12;11.10;44.30
45491;DHT22;31237;45.586;13.782;2023-04-03T15:29:40;11.10;44.20
45491;DHT22;31237;45.586;13.782;2023-04-03T15:32:06;11.10;44.50
45491;DHT22;31237;45.586;13.782;2023-04-03T15:34:32;11.10;44.00
45491;DHT22;31237;45.586;13.782;2023-04-03T15:36:58;11.00;44.20
45491;DHT22;31237;45.586;13.782;2023-04-03T15:39:25;11.00;44.00
45491;DHT22;31237;45.586;13.782;2023-04-03T15:41:51;11.00;44.20
45491;DHT22;31237;45.586;13.782;2023-04-03T15:44:21;10.90;44.00
45491;DHT22;31237;45.586;13.782;2023-04-03T15:46:48;10.90;44.40
45491;DHT22;31237;45.586;13.782;2023-04-03T15:49:17;10.90;44.80
45491;DHT22;31237;45.586;13.782;2023-04-03T15:51:43;10.90;44.80
45491;DHT22;31237;45.586;13.782;2023-04-03T15:54:09;10.90;44.80
45491;DHT22;31237;45.586;13.782;2023-04-03T15:56:34;10.90;45.00
45491;DHT22;31237;45.586;13.782;2023-04-03T15:59:00;10.80;45.20
45491;DHT22;31237;45.586;13.782;2023-04-03T16:01:26;10.80;45.30
45491;DHT22;31237;45.586;13.782;2023-04-03T16:03:52;10.80;45.10
45491;DHT22;31237;45.586;13.782;2023-04-03T16:06:18;10.70;45.00
45491;DHT22;31237;45.586;13.782;2023-04-03T16:08:44;10.70;45.30
45491;DHT22;31237;45.586;13.782;2023-04-03T16:11:11;10.70;45.50
45491;DHT22;31237;45.586;13.782;2023-04-03T16:13:37;10.60;45.20
45491;DHT22;31237;45.586;13.782;2023-04-03T16:16:04;10.60;45.50
45491;DHT22;31237;45.586;13.782;2023-04-03T16:18:30;10.60;45.50
45491;DHT22;31237;45.586;13.782;2023-04-03T16:20:56;10.50;45.80
45491;DHT22;31237;45.586;13.782;2023-04-03T16:23:22;10.50;45.60
45491;DHT22;31237;45.586;13.782;2023-04-03T16:25:48;10.40;45.30
45491;DHT22;31237;45.586;13.782;2023-04-03T16:28:16;10.40;45.60
45491;DHT22;31237;45.586;13.782;2023-04-03T16:30:45;10.40;45.80
45491;DHT22;31237;45.586;13.782;2023-04-03T16:33:12;10.40;45.90
45491;DHT22;31237;45.586;13.782;2023-04-03T16:35:38;10.30;46.20
45491;DHT22;31237;45.586;13.782;2023-04-03T16:38:04;10.30;46.20
45491;DHT22;31237;45.586;13.782;2023-04-03T16:40:30;10.20;46.10
45491;DHT22;31237;45.586;13.782;2023-04-03T16:42:56;10.20;46.20
45491;DHT22;31237;45.586;13.782;2023-04-03T16:45:22;10.20;46.40
45491;DHT22;31237;45.586;13.782;2023-04-03T16:47:48;10.10;46.50
45491;DHT22;31237;45.586;13.782;2023-04-03T16:50:14;10.00;46.70
45491;DHT22;31237;45.586;13.782;2023-04-03T16:52:40;10.00;46.90
45491;DHT22;31237;45.586;13.782;2023-04-03T16:55:06;9.90;46.90
45491;DHT22;31237;45.586;13.782;2023-04-03T16:57:32;9.90;47.10
45491;DHT22;31237;45.586;13.782;2023-04-03T16:59:58;9.80;47.10
45491;DHT22;31237;45.586;13.782;2023-04-03T17:02:24;9.70;46.90
45491;DHT22;31237;45.586;13.782;2023-04-03T17:04:51;9.70;46.50
45491;DHT22;31237;45.586;13.782;2023-04-03T17:07:21;9.70;46.80
45491;DHT22;31237;45.586;13.782;2023-04-03T17:09:48;9.60;46.90
45491;DHT22;31237;45.586;13.782;2023-04-03T17:12:14;9.60;46.90